Time,TemperatureF,DewpointF,PressureIn,WindDirection,WindDirectionDegrees,WindSpeedMPH,WindSpeedGustMPH,Humidity,HourlyPrecipIn,Conditions,Clouds,dailyrainin,SoftwareType,DateUTC
2013-04-20 00:00:00,62.4,59.8,29.68,WSW,237,4.0,5.8,91,0.24,,OVC006,0.00,VWS V13.01,2013-04-20 04:00:00,
2013-04-20 00:01:00,62.4,59.8,29.68,West,263,5.8,10.5,91,0.24,,OVC006,0.00,VWS V13.01,2013-04-20 04:01:00,
2013-04-20 00:06:00,62.2,59.6,29.68,WSW,241,8.3,10.5,91,0.24,,OVC006,0.00,VWS V13.01,2013-04-20 04:06:00,
2013-04-20 00:11:00,62.2,59.6,29.68,WSW,243,4.9,10.5,91,0.24,,OVC006,0.00,VWS V13.01,2013-04-20 04:11:00,
2013-04-20 00:16:00,62.1,59.7,29.68,WSW,239,3.1,11.0,92,0.24,,OVC006,0.00,VWS V13.01,2013-04-20 04:16:00,
2013-04-20 00:21:00,62.1,59.7,29.68,WSW,257,2.7,11.0,92,0.24,,OVC006,0.00,VWS V13.01,2013-04-20 04:21:00,
2013-04-20 00:26:00,62.1,59.7,29.68,West,280,3.6,11.0,92,0.24,,OVC006,0.00,VWS V13.01,2013-04-20 04:26:00,
2013-04-20 00:31:00,61.9,59.5,29.68,WSW,257,6.7,6.7,92,0.08,,OVC006,0.00,VWS V13.01,2013-04-20 04:31:00,
2013-04-20 00:36:00,61.9,59.5,29.68,West,273,2.7,8.1,92,0.08,,OVC006,0.00,VWS V13.01,2013-04-20 04:36:00,
2013-04-20 00:41:00,61.7,59.4,29.68,WSW,243,3.1,8.1,92,0.08,,OVC006,0.00,VWS V13.01,2013-04-20 04:41:00,
2013-04-20 00:46:00,61.7,59.4,29.68,WNW,289,0.0,8.1,92,0.08,,-RA,0.00,VWS V13.01,2013-04-20 04:46:00,
2013-04-20 00:51:00,61.7,59.4,29.68,WSW,243,0.0,8.1,92,0.12,,-RA,0.04,VWS V13.01,2013-04-20 04:51:00,
2013-04-20 00:56:00,61.7,59.4,29.68,WNW,295,4.0,8.1,92,0.12,,-RA,0.04,VWS V13.01,2013-04-20 04:56:00,
2013-04-20 01:01:00,61.2,58.8,29.68,WNW,297,5.8,6.3,92,0.04,,-RA,0.04,VWS V13.01,2013-04-20 05:01:00,
2013-04-20 01:06:00,60.3,57.9,29.68,NNW,342,4.9,10.1,92,0.04,,-RA,0.04,VWS V13.01,2013-04-20 05:06:00,
2013-04-20 01:11:00,59.0,56.1,29.68,WNW,283,6.3,10.1,90,0.04,,-RA,0.04,VWS V13.01,2013-04-20 05:11:00,
2013-04-20 01:16:00,57.7,54.5,29.68,NW,311,8.3,11.0,89,0.04,,-RA,0.04,VWS V13.01,2013-04-20 05:16:00,
2013-04-20 01:21:00,56.7,53.5,29.68,SW,233,8.3,13.2,89,0.04,,-RA,0.04,VWS V13.01,2013-04-20 05:21:00,
2013-04-20 01:26:00,55.0,50.6,29.68,WNW,296,8.7,13.2,85,0.12,,-RA,0.12,VWS V13.01,2013-04-20 05:26:00,
2013-04-20 01:31:00,53.6,48.6,29.68,SW,234,8.7,17.4,83,0.12,,-RA,0.12,VWS V13.01,2013-04-20 05:31:00,
2013-04-20 01:36:00,52.5,47.5,29.68,WSW,256,6.3,17.4,83,0.12,,-RA,0.12,VWS V13.01,2013-04-20 05:36:00,
2013-04-20 01:41:00,51.6,47.0,29.71,West,267,7.6,19.7,84,0.12,,-RA,0.12,VWS V13.01,2013-04-20 05:41:00,
2013-04-20 01:46:00,50.9,46.2,29.71,West,266,12.8,19.7,84,0.12,,-RA,0.12,VWS V13.01,2013-04-20 05:46:00,
2013-04-20 01:51:00,50.2,45.5,29.71,NW,305,8.7,19.7,84,0.12,,-RA,0.12,VWS V13.01,2013-04-20 05:51:00,
2013-04-20 01:56:00,49.6,45.3,29.68,WNW,283,15.4,19.7,85,0.12,,-RA,0.12,VWS V13.01,2013-04-20 05:56:00,
2013-04-20 02:01:00,49.1,44.8,29.68,WNW,289,8.1,15.0,85,0.12,,-RA,0.16,VWS V13.01,2013-04-20 06:01:00,
2013-04-20 02:06:00,48.7,44.8,29.68,West,264,10.5,17.0,86,0.12,,-RA,0.16,VWS V13.01,2013-04-20 06:06:00,
2013-04-20 02:11:00,48.6,44.6,29.68,NW,325,13.2,17.0,86,0.12,,-RA,0.16,VWS V13.01,2013-04-20 06:11:00,
2013-04-20 02:16:00,48.4,44.7,29.68,WSW,241,11.0,18.3,87,0.12,,-RA,0.16,VWS V13.01,2013-04-20 06:16:00,
2013-04-20 02:21:00,48.0,44.6,29.68,West,273,12.3,18.3,88,0.12,,-RA,0.16,VWS V13.01,2013-04-20 06:21:00,
2013-04-20 02:26:00,47.8,44.8,29.68,WSW,245,10.5,18.3,89,0.12,,-RA,0.16,VWS V13.01,2013-04-20 06:26:00,
2013-04-20 02:31:00,47.7,44.6,29.68,West,280,15.0,16.8,89,0.04,,-RA,0.16,VWS V13.01,2013-04-20 06:31:00,
2013-04-20 02:36:00,47.5,44.4,29.68,WSW,250,10.5,17.9,89,0.04,,-RA,0.16,VWS V13.01,2013-04-20 06:36:00,
2013-04-20 02:41:00,47.3,44.2,29.68,WSW,243,10.5,17.9,89,0.04,,-RA,0.16,VWS V13.01,2013-04-20 06:41:00,
2013-04-20 02:46:00,47.3,44.2,29.68,West,271,16.3,17.9,89,0.04,,RA,0.16,VWS V13.01,2013-04-20 06:46:00,
2013-04-20 02:51:00,47.1,44.3,29.68,West,274,13.2,17.9,90,0.04,,RA,0.16,VWS V13.01,2013-04-20 06:51:00,
2013-04-20 02:56:00,47.1,44.3,29.71,WSW,256,5.4,22.4,90,0.04,,RA,0.16,VWS V13.01,2013-04-20 06:56:00,
2013-04-20 03:01:00,46.9,44.2,29.71,West,275,8.1,15.0,90,0.00,,RA,0.16,VWS V13.01,2013-04-20 07:01:00,
2013-04-20 03:06:00,46.6,43.8,29.71,WSW,246,5.4,18.8,90,0.04,,RA,0.20,VWS V13.01,2013-04-20 07:06:00,
2013-04-20 03:11:00,46.2,43.5,29.68,WNW,283,10.5,18.8,90,0.04,,RA,0.20,VWS V13.01,2013-04-20 07:11:00,
2013-04-20 03:16:00,45.7,42.6,29.68,WNW,289,7.2,19.7,89,0.04,,RA,0.20,VWS V13.01,2013-04-20 07:16:00,
2013-04-20 03:21:00,45.3,42.0,29.68,NNW,328,4.9,19.7,88,0.04,,RA,0.20,VWS V13.01,2013-04-20 07:21:00,
2013-04-20 03:26:00,45.3,42.0,29.71,NNW,334,4.9,19.7,88,0.04,,RA,0.20,VWS V13.01,2013-04-20 07:26:00,
2013-04-20 03:31:00,45.1,41.8,29.71,NNE,23,2.7,5.8,88,0.04,,RA,0.20,VWS V13.01,2013-04-20 07:31:00,
2013-04-20 03:36:00,45.1,41.8,29.71,NW,317,5.8,8.7,88,0.04,,RA,0.20,VWS V13.01,2013-04-20 07:36:00,
2013-04-20 03:41:00,45.0,41.6,29.68,NNW,336,2.7,12.3,88,0.04,,RA,0.20,VWS V13.01,2013-04-20 07:41:00,
2013-04-20 03:46:00,44.8,41.5,29.68,NE,36,4.0,12.3,88,0.04,,-RA,0.20,VWS V13.01,2013-04-20 07:46:00,
2013-04-20 03:51:00,44.4,41.1,29.68,SW,224,4.0,12.3,88,0.04,,-RA,0.20,VWS V13.01,2013-04-20 07:51:00,
2013-04-20 03:56:00,44.4,41.1,29.71,West,264,4.0,12.3,88,0.08,,-RA,0.24,VWS V13.01,2013-04-20 07:56:00,
2013-04-20 04:01:00,44.2,40.9,29.71,WSW,238,3.6,13.2,88,0.08,,-RA,0.24,VWS V13.01,2013-04-20 08:01:00,
2013-04-20 04:06:00,44.1,40.7,29.71,WNW,288,3.6,13.2,88,0.08,,-RA,0.24,VWS V13.01,2013-04-20 08:06:00,
2013-04-20 04:11:00,43.9,40.8,29.71,NW,311,8.3,13.2,89,0.12,,-RA,0.28,VWS V13.01,2013-04-20 08:11:00,
2013-04-20 04:16:00,43.7,40.7,29.71,NW,318,4.9,13.2,89,0.12,,-RA,0.28,VWS V13.01,2013-04-20 08:16:00,
2013-04-20 04:21:00,43.5,40.5,29.71,WNW,293,8.1,13.2,89,0.12,,-RA,0.28,VWS V13.01,2013-04-20 08:21:00,
2013-04-20 04:26:00,43.5,40.5,29.74,NW,319,4.9,13.2,89,0.12,,-RA,0.28,VWS V13.01,2013-04-20 08:26:00,
2013-04-20 04:31:00,43.3,40.3,29.74,WNW,293,4.5,13.2,89,0.12,,-RA,0.31,VWS V13.01,2013-04-20 08:31:00,
2013-04-20 04:36:00,43.2,40.1,29.74,WSW,241,3.6,13.2,89,0.12,,-RA,0.31,VWS V13.01,2013-04-20 08:36:00,
2013-04-20 04:41:00,43.0,40.0,29.71,SW,232,4.0,13.2,89,0.12,,-RA,0.31,VWS V13.01,2013-04-20 08:41:00,
2013-04-20 04:46:00,43.0,40.0,29.71,NE,50,3.6,13.2,89,0.12,,-RA,0.31,VWS V13.01,2013-04-20 08:46:00,
2013-04-20 04:51:00,43.0,39.7,29.71,WNW,285,3.1,13.2,88,0.12,,-RA,0.31,VWS V13.01,2013-04-20 08:51:00,
2013-04-20 04:56:00,42.8,39.5,29.74,WNW,284,4.0,13.2,88,0.12,,-RA,0.31,VWS V13.01,2013-04-20 08:56:00,
2013-04-20 05:01:00,42.8,39.5,29.74,North,353,7.6,10.5,88,0.08,,-RA,0.31,VWS V13.01,2013-04-20 09:01:00,
2013-04-20 05:06:00,42.8,39.5,29.74,SW,228,3.6,10.5,88,0.08,,-RA,0.31,VWS V13.01,2013-04-20 09:06:00,
2013-04-20 05:11:00,42.8,39.5,29.74,NW,322,0.0,10.5,88,0.08,,-RA,0.31,VWS V13.01,2013-04-20 09:11:00,
2013-04-20 05:16:00,42.8,39.5,29.74,WSW,246,2.7,10.5,88,0.08,,-RA,0.31,VWS V13.01,2013-04-20 09:16:00,
2013-04-20 05:21:00,42.8,39.5,29.74,NNW,328,2.7,10.5,88,0.08,,-RA,0.31,VWS V13.01,2013-04-20 09:21:00,
2013-04-20 05:26:00,42.8,39.5,29.77,WNW,301,5.4,10.5,88,0.08,,-RA,0.31,VWS V13.01,2013-04-20 09:26:00,
2013-04-20 05:31:00,42.8,39.5,29.77,NNW,327,4.0,6.3,88,0.00,,-RA,0.31,VWS V13.01,2013-04-20 09:31:00,
2013-04-20 05:36:00,42.8,39.5,29.77,WNW,283,3.1,11.0,88,0.00,,-RA,0.31,VWS V13.01,2013-04-20 09:36:00,
2013-04-20 05:41:00,42.6,39.6,29.77,West,281,5.4,12.3,89,0.00,,-RA,0.31,VWS V13.01,2013-04-20 09:41:00,
2013-04-20 05:46:00,42.4,39.4,29.77,NW,325,2.7,12.3,89,0.00,,-RA,0.31,VWS V13.01,2013-04-20 09:46:00,
2013-04-20 05:51:00,42.4,39.4,29.77,NNW,341,5.4,12.3,89,0.00,,-RA,0.31,VWS V13.01,2013-04-20 09:51:00,
2013-04-20 05:56:00,42.3,39.0,29.77,NNW,330,6.3,12.3,88,0.00,,-RA,0.31,VWS V13.01,2013-04-20 09:56:00,
2013-04-20 06:01:00,42.3,39.0,29.77,WSW,253,5.8,5.8,88,0.00,,-RA,0.31,VWS V13.01,2013-04-20 10:01:00,
2013-04-20 06:06:00,42.3,39.0,29.77,SW,232,8.7,10.1,88,0.00,,-RA,0.31,VWS V13.01,2013-04-20 10:06:00,
2013-04-20 06:11:00,42.3,39.0,29.77,West,281,5.4,10.1,88,0.00,,-RA,0.31,VWS V13.01,2013-04-20 10:11:00,
2013-04-20 06:16:00,42.3,39.0,29.77,WNW,295,10.1,10.1,88,0.00,,-RA,0.31,VWS V13.01,2013-04-20 10:16:00,
2013-04-20 06:21:00,42.3,39.0,29.77,West,264,6.3,10.1,88,0.00,,-RA,0.31,VWS V13.01,2013-04-20 10:21:00,
2013-04-20 06:26:00,42.3,39.0,29.80,West,266,4.0,13.2,88,0.00,,-RA,0.31,VWS V13.01,2013-04-20 10:26:00,
2013-04-20 06:31:00,42.3,39.0,29.80,WSW,252,2.7,8.1,88,0.00,,-RA,0.31,VWS V13.01,2013-04-20 10:31:00,
2013-04-20 06:36:00,42.3,39.0,29.80,WSW,256,5.8,12.3,88,0.00,,-RA,0.31,VWS V13.01,2013-04-20 10:36:00,
2013-04-20 06:41:00,42.4,39.1,29.80,WNW,290,8.7,12.3,88,0.00,,-RA,0.31,VWS V13.01,2013-04-20 10:41:00,
2013-04-20 06:46:00,42.4,39.1,29.80,WNW,295,12.3,12.3,88,0.00,,OVC070,0.31,VWS V13.01,2013-04-20 10:46:00,
2013-04-20 06:51:00,42.4,39.1,29.80,West,272,3.1,12.3,88,0.00,,OVC070,0.31,VWS V13.01,2013-04-20 10:51:00,
2013-04-20 06:56:00,42.4,39.1,29.83,WNW,295,5.8,12.3,88,0.00,,OVC070,0.31,VWS V13.01,2013-04-20 10:56:00,
2013-04-20 07:01:00,42.4,39.1,29.83,West,266,5.4,8.3,88,0.00,,OVC070,0.31,VWS V13.01,2013-04-20 11:01:00,
2013-04-20 07:06:00,42.4,39.1,29.83,WNW,302,2.7,10.5,88,0.00,,OVC070,0.31,VWS V13.01,2013-04-20 11:06:00,
2013-04-20 07:11:00,42.4,39.1,29.83,West,270,6.3,10.5,88,0.00,,OVC070,0.31,VWS V13.01,2013-04-20 11:11:00,
2013-04-20 07:16:00,42.4,39.1,29.83,WNW,298,2.2,10.5,88,0.00,,OVC070,0.31,VWS V13.01,2013-04-20 11:16:00,
2013-04-20 07:21:00,42.6,39.3,29.83,WSW,241,0.0,10.5,88,0.00,,OVC070,0.31,VWS V13.01,2013-04-20 11:21:00,
2013-04-20 07:26:00,42.6,39.0,29.83,West,268,4.9,10.5,87,0.00,,OVC070,0.31,VWS V13.01,2013-04-20 11:26:00,
2013-04-20 07:31:00,43.0,39.4,29.83,WNW,295,5.8,8.7,87,0.00,,OVC070,0.31,VWS V13.01,2013-04-20 11:31:00,
2013-04-20 07:36:00,43.0,39.4,29.83,SW,219,0.0,8.7,87,0.00,,OVC070,0.31,VWS V13.01,2013-04-20 11:36:00,
2013-04-20 07:41:00,43.2,39.6,29.83,WNW,292,5.4,8.7,87,0.00,,OVC070,0.31,VWS V13.01,2013-04-20 11:41:00,
2013-04-20 07:46:00,43.3,39.7,29.83,West,277,4.0,8.7,87,0.00,,-RA,0.31,VWS V13.01,2013-04-20 11:46:00,
2013-04-20 07:51:00,43.3,39.7,29.83,West,277,0.0,8.7,87,0.00,,-RA,0.31,VWS V13.01,2013-04-20 11:51:00,
2013-04-20 07:56:00,43.5,39.9,29.83,NW,306,4.0,8.7,87,0.00,,-RA,0.31,VWS V13.01,2013-04-20 11:56:00,
2013-04-20 08:01:00,43.9,40.3,29.83,WNW,284,0.0,4.0,87,0.00,,-RA,0.31,VWS V13.01,2013-04-20 12:01:00,
2013-04-20 08:06:00,44.1,40.5,29.83,West,271,2.2,5.4,87,0.00,,-RA,0.31,VWS V13.01,2013-04-20 12:06:00,
2013-04-20 08:11:00,44.1,40.5,29.83,WNW,291,0.0,6.7,87,0.00,,-RA,0.31,VWS V13.01,2013-04-20 12:11:00,
2013-04-20 08:16:00,44.1,40.5,29.83,NW,317,0.0,6.7,87,0.00,,-RA,0.31,VWS V13.01,2013-04-20 12:16:00,
2013-04-20 08:21:00,44.1,40.5,29.83,NW,319,0.0,6.7,87,0.00,,-RA,0.31,VWS V13.01,2013-04-20 12:21:00,
2013-04-20 08:26:00,44.4,40.8,29.83,WSW,258,0.0,6.7,87,0.00,,-RA,0.31,VWS V13.01,2013-04-20 12:26:00,
2013-04-20 08:31:00,44.8,41.2,29.83,WSW,250,0.0,4.0,87,0.00,,-RA,0.31,VWS V13.01,2013-04-20 12:31:00,
2013-04-20 08:36:00,45.1,41.2,29.83,WNW,286,0.0,8.7,86,0.00,,-RA,0.31,VWS V13.01,2013-04-20 12:36:00,
2013-04-20 08:41:00,45.1,41.2,29.83,WNW,294,0.0,8.7,86,0.00,,-RA,0.31,VWS V13.01,2013-04-20 12:41:00,
2013-04-20 08:46:00,45.1,41.2,29.83,West,276,0.0,8.7,86,0.00,,-RA,0.31,VWS V13.01,2013-04-20 12:46:00,
2013-04-20 08:51:00,45.1,40.9,29.83,WSW,245,0.0,8.7,85,0.00,,-RA,0.31,VWS V13.01,2013-04-20 12:51:00,
2013-04-20 08:56:00,45.3,41.1,29.83,SSW,211,0.0,8.7,85,0.00,,-RA,0.31,VWS V13.01,2013-04-20 12:56:00,
2013-04-20 09:01:00,45.7,41.4,29.83,West,265,0.0,6.3,85,0.00,,OVC100,0.31,VWS V13.01,2013-04-20 13:01:00,
2013-04-20 09:06:00,46.2,42.0,29.83,West,269,4.9,6.3,85,0.00,,OVC100,0.31,VWS V13.01,2013-04-20 13:06:00,
2013-04-20 09:11:00,46.8,42.2,29.85,West,266,3.1,7.6,84,0.00,,OVC100,0.31,VWS V13.01,2013-04-20 13:11:00,
2013-04-20 09:16:00,47.3,42.7,29.85,West,262,8.3,8.3,84,0.00,,OVC100,0.31,VWS V13.01,2013-04-20 13:16:00,
2013-04-20 09:21:00,47.5,42.6,29.85,West,278,0.0,8.3,83,0.00,,OVC100,0.31,VWS V13.01,2013-04-20 13:21:00,
2013-04-20 09:26:00,47.5,42.3,29.85,NW,322,0.0,8.3,82,0.00,,OVC100,0.31,VWS V13.01,2013-04-20 13:26:00,
2013-04-20 09:31:00,47.8,42.3,29.83,West,274,0.0,7.6,81,0.00,,OVC100,0.31,VWS V13.01,2013-04-20 13:31:00,
2013-04-20 09:36:00,47.8,41.7,29.83,West,265,3.6,9.2,79,0.00,,OVC100,0.31,VWS V13.01,2013-04-20 13:36:00,
2013-04-20 09:41:00,48.0,41.2,29.83,West,276,3.1,9.2,77,0.00,,OVC100,0.31,VWS V13.01,2013-04-20 13:41:00,
2013-04-20 09:46:00,48.4,40.8,29.83,WSW,244,8.1,9.2,75,0.00,,BKN100,0.31,VWS V13.01,2013-04-20 13:46:00,
2013-04-20 09:51:00,48.7,40.8,29.83,West,277,3.1,9.2,74,0.00,,BKN100,0.31,VWS V13.01,2013-04-20 13:51:00,
2013-04-20 09:56:00,48.7,40.5,29.85,WSW,240,10.1,13.2,73,0.00,,BKN100,0.31,VWS V13.01,2013-04-20 13:56:00,
2013-04-20 10:01:00,48.9,39.6,29.85,WSW,252,0.0,12.8,70,0.00,,BKN100,0.31,VWS V13.01,2013-04-20 14:01:00,
2013-04-20 10:06:00,49.3,39.2,29.85,West,260,3.6,12.8,68,0.00,,BKN100,0.31,VWS V13.01,2013-04-20 14:06:00,
2013-04-20 10:11:00,49.3,37.6,29.85,West,265,6.3,13.2,64,0.00,,BKN100,0.31,VWS V13.01,2013-04-20 14:11:00,
2013-04-20 10:16:00,49.3,34.7,29.85,WNW,292,10.5,15.4,57,0.00,,BKN100,0.31,VWS V13.01,2013-04-20 14:16:00,
2013-04-20 10:21:00,49.3,34.3,29.85,WSW,244,14.1,15.4,56,0.00,,BKN100,0.31,VWS V13.01,2013-04-20 14:21:00,
2013-04-20 10:26:00,49.3,33.8,29.85,WSW,254,12.8,15.4,55,0.00,,BKN100,0.31,VWS V13.01,2013-04-20 14:26:00,
2013-04-20 10:31:00,49.5,33.5,29.85,WSW,241,3.1,9.6,54,0.00,,BKN100,0.31,VWS V13.01,2013-04-20 14:31:00,
2013-04-20 10:36:00,49.5,32.6,29.85,West,263,10.5,15.0,52,0.00,,BKN100,0.31,VWS V13.01,2013-04-20 14:36:00,
2013-04-20 10:41:00,49.6,32.3,29.88,SW,233,12.3,15.0,51,0.00,,BKN100,0.31,VWS V13.01,2013-04-20 14:41:00,
2013-04-20 10:46:00,49.6,32.8,29.88,West,259,6.3,15.0,52,0.00,,BKN100,0.31,VWS V13.01,2013-04-20 14:46:00,
2013-04-20 10:51:00,49.5,31.1,29.88,WSW,247,8.7,15.0,49,0.00,,BKN100,0.31,VWS V13.01,2013-04-20 14:51:00,
2013-04-20 10:56:00,49.5,31.6,29.88,WNW,286,5.4,15.0,50,0.00,,BKN100,0.31,VWS V13.01,2013-04-20 14:56:00,
2013-04-20 11:01:00,49.5,31.6,29.88,NW,316,8.7,12.8,50,0.00,,BKN100,0.31,VWS V13.01,2013-04-20 15:01:00,
2013-04-20 11:06:00,49.5,31.6,29.88,SW,230,10.5,12.8,50,0.00,,BKN100,0.31,VWS V13.01,2013-04-20 15:06:00,
2013-04-20 11:11:00,49.8,30.9,29.88,WSW,245,4.9,14.1,48,0.00,,BKN100,0.31,VWS V13.01,2013-04-20 15:11:00,
2013-04-20 11:16:00,50.2,30.2,29.88,WSW,256,8.7,16.3,46,0.00,,BKN100,0.31,VWS V13.01,2013-04-20 15:16:00,
2013-04-20 11:21:00,50.5,31.1,29.88,WSW,258,4.0,16.3,47,0.00,,BKN100,0.31,VWS V13.01,2013-04-20 15:21:00,
2013-04-20 11:26:00,50.9,30.9,29.88,WNW,292,11.0,16.3,46,0.00,,BKN100,0.31,VWS V13.01,2013-04-20 15:26:00,
2013-04-20 11:31:00,51.4,31.4,29.88,West,269,7.2,11.0,46,0.00,,BKN100,0.31,VWS V13.01,2013-04-20 15:31:00,
2013-04-20 11:36:00,51.8,31.7,29.88,WSW,242,12.3,13.2,46,0.00,,BKN100,0.31,VWS V13.01,2013-04-20 15:36:00,
2013-04-20 11:41:00,52.0,30.8,29.88,WSW,253,5.8,15.4,44,0.00,,BKN100,0.31,VWS V13.01,2013-04-20 15:41:00,
2013-04-20 11:46:00,52.2,30.4,29.88,WSW,241,11.0,15.4,43,0.00,,BKN100,0.31,VWS V13.01,2013-04-20 15:46:00,
2013-04-20 11:51:00,52.0,29.0,29.88,SW,220,3.1,15.4,41,0.00,,BKN100,0.31,VWS V13.01,2013-04-20 15:51:00,
2013-04-20 11:56:00,52.0,28.4,29.88,NW,305,4.5,15.4,40,0.00,,BKN100,0.31,VWS V13.01,2013-04-20 15:56:00,
2013-04-20 12:01:00,52.0,28.4,29.91,West,276,8.7,14.1,40,0.00,,BKN100,0.31,VWS V13.01,2013-04-20 16:01:00,
2013-04-20 12:06:00,51.8,28.3,29.91,WNW,294,5.8,14.1,40,0.00,,BKN100,0.31,VWS V13.01,2013-04-20 16:06:00,
2013-04-20 12:11:00,51.6,28.1,29.91,SW,234,12.8,14.1,40,0.00,,BKN100,0.31,VWS V13.01,2013-04-20 16:11:00,
2013-04-20 12:16:00,51.6,28.7,29.91,WSW,243,7.2,14.1,41,0.00,,BKN100,0.31,VWS V13.01,2013-04-20 16:16:00,
2013-04-20 12:21:00,51.6,28.1,29.91,West,275,5.8,14.1,40,0.00,,BKN100,0.31,VWS V13.01,2013-04-20 16:21:00,
2013-04-20 12:26:00,51.6,27.5,29.91,West,275,7.6,14.1,39,0.00,,BKN100,0.31,VWS V13.01,2013-04-20 16:26:00,
2013-04-20 12:31:00,51.6,27.5,29.91,WSW,238,10.1,11.0,39,0.00,,BKN100,0.31,VWS V13.01,2013-04-20 16:31:00,
2013-04-20 12:36:00,51.8,28.3,29.91,South,188,7.6,11.0,40,0.00,,BKN100,0.31,VWS V13.01,2013-04-20 16:36:00,
2013-04-20 12:41:00,52.0,29.0,29.91,WSW,250,2.7,11.0,41,0.00,,BKN100,0.31,VWS V13.01,2013-04-20 16:41:00,
2013-04-20 12:46:00,52.2,28.6,29.91,SW,222,6.3,14.5,40,0.00,,BKN100,0.31,VWS V13.01,2013-04-20 16:46:00,
2013-04-20 12:51:00,52.3,28.8,29.91,West,262,8.1,14.5,40,0.00,,BKN100,0.31,VWS V13.01,2013-04-20 16:51:00,
2013-04-20 12:56:00,52.5,28.9,29.91,West,265,11.9,14.5,40,0.00,,BKN100,0.31,VWS V13.01,2013-04-20 16:56:00,
2013-04-20 13:01:00,52.5,28.9,29.91,West,275,5.4,10.5,40,0.00,,BKN100,0.31,VWS V13.01,2013-04-20 17:01:00,
2013-04-20 13:06:00,52.7,28.5,29.91,NW,325,6.3,15.0,39,0.00,,BKN100,0.31,VWS V13.01,2013-04-20 17:06:00,
2013-04-20 13:11:00,52.9,28.0,29.91,WSW,248,5.8,15.0,38,0.00,,BKN100,0.31,VWS V13.01,2013-04-20 17:11:00,
2013-04-20 13:16:00,52.9,28.0,29.91,West,267,6.3,17.0,38,0.00,,BKN200,0.31,VWS V13.01,2013-04-20 17:16:00,
2013-04-20 13:21:00,52.7,27.2,29.91,WNW,283,8.7,17.0,37,0.00,,BKN200,0.31,VWS V13.01,2013-04-20 17:21:00,
2013-04-20 13:26:00,52.7,27.8,29.91,WNW,282,8.3,17.0,38,0.00,,BKN200,0.31,VWS V13.01,2013-04-20 17:26:00,
2013-04-20 13:31:00,52.9,28.0,29.91,WSW,245,3.6,11.0,38,0.00,,BKN200,0.31,VWS V13.01,2013-04-20 17:31:00,
2013-04-20 13:36:00,53.1,28.1,29.91,West,260,4.0,11.4,38,0.00,,BKN200,0.31,VWS V13.01,2013-04-20 17:36:00,
2013-04-20 13:41:00,53.2,27.7,29.91,West,272,12.3,13.2,37,0.00,,BKN200,0.31,VWS V13.01,2013-04-20 17:41:00,
2013-04-20 13:46:00,53.4,27.8,29.91,WSW,244,8.1,14.1,37,0.00,,BKN160,0.31,VWS V13.01,2013-04-20 17:46:00,
2013-04-20 13:51:00,53.4,27.8,29.91,West,281,12.3,14.1,37,0.00,,BKN160,0.31,VWS V13.01,2013-04-20 17:51:00,
2013-04-20 13:56:00,53.4,27.1,29.91,West,270,4.9,14.1,36,0.00,,BKN160,0.31,VWS V13.01,2013-04-20 17:56:00,
2013-04-20 14:01:00,53.2,27.0,29.91,NW,318,5.4,8.3,36,0.00,,BKN160,0.31,VWS V13.01,2013-04-20 18:01:00,
2013-04-20 14:06:00,53.2,27.0,29.91,WSW,252,0.0,11.9,36,0.00,,BKN160,0.31,VWS V13.01,2013-04-20 18:06:00,
2013-04-20 14:11:00,53.2,26.3,29.91,NW,305,8.7,12.8,35,0.00,,BKN160,0.31,VWS V13.01,2013-04-20 18:11:00,
2013-04-20 14:16:00,52.9,26.7,29.91,SSW,195,0.0,12.8,36,0.00,,BKN160,0.31,VWS V13.01,2013-04-20 18:16:00,
2013-04-20 14:21:00,52.7,26.5,29.91,WNW,290,10.5,13.2,36,0.00,,BKN160,0.31,VWS V13.01,2013-04-20 18:21:00,
2013-04-20 14:26:00,53.2,27.0,29.91,WNW,299,15.4,15.4,36,0.00,,BKN160,0.31,VWS V13.01,2013-04-20 18:26:00,
2013-04-20 14:31:00,53.6,27.3,29.91,West,259,7.2,8.7,36,0.00,,BKN160,0.31,VWS V13.01,2013-04-20 18:31:00,
2013-04-20 14:36:00,53.8,26.1,29.91,NW,324,3.6,11.0,34,0.00,,BKN160,0.31,VWS V13.01,2013-04-20 18:36:00,
2013-04-20 14:41:00,54.3,27.3,29.91,WNW,282,8.7,11.0,35,0.00,,BKN160,0.31,VWS V13.01,2013-04-20 18:41:00,
2013-04-20 14:46:00,54.3,27.3,29.91,West,271,5.8,12.3,35,0.00,,BKN160,0.31,VWS V13.01,2013-04-20 18:46:00,
2013-04-20 14:51:00,54.3,27.3,29.91,West,261,5.4,12.3,35,0.00,,BKN160,0.31,VWS V13.01,2013-04-20 18:51:00,
2013-04-20 14:56:00,54.1,26.4,29.91,NW,325,0.0,12.3,34,0.00,,BKN160,0.31,VWS V13.01,2013-04-20 18:56:00,
2013-04-20 15:01:00,54.0,25.5,29.91,NE,36,0.0,12.3,33,0.00,,BKN160,0.31,VWS V13.01,2013-04-20 19:01:00,
2013-04-20 15:06:00,54.0,27.0,29.91,North,353,0.0,12.3,35,0.00,,BKN160,0.31,VWS V13.01,2013-04-20 19:06:00,
2013-04-20 15:11:00,54.3,27.3,29.91,WNW,297,6.3,12.3,35,0.00,,BKN160,0.31,VWS V13.01,2013-04-20 19:11:00,
2013-04-20 15:16:00,54.1,26.4,29.91,North,10,4.0,12.3,34,0.00,,BKN160,0.31,VWS V13.01,2013-04-20 19:16:00,
2013-04-20 15:21:00,53.8,26.1,29.91,WSW,252,3.6,13.2,34,0.00,,BKN160,0.31,VWS V13.01,2013-04-20 19:21:00,
2013-04-20 15:26:00,53.8,26.8,29.91,WNW,301,0.0,13.2,35,0.00,,BKN160,0.31,VWS V13.01,2013-04-20 19:26:00,
2013-04-20 15:31:00,53.8,26.8,29.91,West,270,0.0,8.1,35,0.00,,BKN160,0.31,VWS V13.01,2013-04-20 19:31:00,
2013-04-20 15:36:00,54.0,27.0,29.91,NW,307,7.6,8.7,35,0.00,,BKN160,0.31,VWS V13.01,2013-04-20 19:36:00,
2013-04-20 15:41:00,53.8,26.1,29.91,SW,234,0.0,10.5,34,0.00,,BKN160,0.31,VWS V13.01,2013-04-20 19:41:00,
2013-04-20 15:46:00,53.8,25.4,29.91,WNW,285,0.0,10.5,33,0.00,,BKN220,0.31,VWS V13.01,2013-04-20 19:46:00,
2013-04-20 15:51:00,53.8,25.4,29.91,SW,220,4.9,12.3,33,0.00,,BKN220,0.31,VWS V13.01,2013-04-20 19:51:00,
2013-04-20 15:56:00,54.0,25.5,29.91,WNW,302,0.0,15.0,33,0.00,,BKN220,0.31,VWS V13.01,2013-04-20 19:56:00,
2013-04-20 16:01:00,53.8,25.4,29.94,WSW,240,3.1,8.7,33,0.00,,BKN220,0.31,VWS V13.01,2013-04-20 20:01:00,
2013-04-20 16:06:00,54.0,25.5,29.94,West,273,8.1,13.2,33,0.00,,BKN220,0.31,VWS V13.01,2013-04-20 20:06:00,
2013-04-20 16:11:00,54.3,25.9,29.94,NW,312,0.0,13.2,33,0.00,,BKN220,0.31,VWS V13.01,2013-04-20 20:11:00,
2013-04-20 16:16:00,54.7,26.2,29.94,NW,322,2.7,13.2,33,0.00,,BKN220,0.31,VWS V13.01,2013-04-20 20:16:00,
2013-04-20 16:21:00,54.9,24.8,29.94,WNW,303,2.7,13.2,31,0.00,,BKN220,0.31,VWS V13.01,2013-04-20 20:21:00,
2013-04-20 16:26:00,54.7,23.9,29.94,West,261,0.0,13.2,30,0.00,,BKN220,0.31,VWS V13.01,2013-04-20 20:26:00,
2013-04-20 16:31:00,54.1,23.4,29.94,West,261,8.7,8.7,30,0.00,,BKN220,0.31,VWS V13.01,2013-04-20 20:31:00,
2013-04-20 16:36:00,53.6,22.9,29.94,WSW,239,5.4,8.7,30,0.00,,BKN220,0.31,VWS V13.01,2013-04-20 20:36:00,
2013-04-20 16:41:00,53.2,23.4,29.94,North,7,3.6,11.0,31,0.00,,BKN220,0.31,VWS V13.01,2013-04-20 20:41:00,
2013-04-20 16:46:00,53.1,23.2,29.94,NE,36,2.7,11.0,31,0.00,,BKN220,0.31,VWS V13.01,2013-04-20 20:46:00,
2013-04-20 16:51:00,53.1,23.2,29.94,WNW,291,2.7,11.0,31,0.00,,BKN220,0.31,VWS V13.01,2013-04-20 20:51:00,
2013-04-20 16:56:00,53.6,22.9,29.94,WNW,296,5.8,11.0,30,0.00,,BKN220,0.31,VWS V13.01,2013-04-20 20:56:00,
2013-04-20 17:01:00,54.0,23.2,29.97,WSW,247,5.4,12.3,30,0.00,,BKN220,0.31,VWS V13.01,2013-04-20 21:01:00,
2013-04-20 17:06:00,54.0,23.2,29.97,SSW,197,0.0,12.8,30,0.00,,BKN220,0.31,VWS V13.01,2013-04-20 21:06:00,
2013-04-20 17:11:00,53.8,23.1,29.97,SW,216,0.0,12.8,30,0.00,,BKN220,0.31,VWS V13.01,2013-04-20 21:11:00,
2013-04-20 17:16:00,53.8,23.1,29.97,WSW,248,6.3,12.8,30,0.00,,BKN220,0.31,VWS V13.01,2013-04-20 21:16:00,
2013-04-20 17:21:00,53.4,23.6,29.97,NNW,327,0.0,12.8,31,0.00,,BKN220,0.31,VWS V13.01,2013-04-20 21:21:00,
2013-04-20 17:26:00,52.9,22.3,29.97,WNW,301,0.0,12.8,30,0.00,,BKN220,0.31,VWS V13.01,2013-04-20 21:26:00,
2013-04-20 17:31:00,52.7,22.9,29.97,North,0,0.0,0.0,31,0.00,,BKN220,0.31,VWS V13.01,2013-04-20 21:31:00,
2013-04-20 17:36:00,52.7,22.2,29.97,West,259,2.2,7.6,30,0.00,,BKN220,0.31,VWS V13.01,2013-04-20 21:36:00,
2013-04-20 17:41:00,52.7,22.2,29.97,ENE,57,0.0,8.3,30,0.00,,BKN220,0.31,VWS V13.01,2013-04-20 21:41:00,
2013-04-20 17:46:00,52.9,22.3,29.97,WNW,283,4.0,8.3,30,0.00,,BKN220,0.31,VWS V13.01,2013-04-20 21:46:00,
2013-04-20 17:51:00,53.1,23.2,29.97,WSW,240,12.8,14.5,31,0.00,,BKN220,0.31,VWS V13.01,2013-04-20 21:51:00,
2013-04-20 17:56:00,52.9,22.3,30.00,WNW,294,0.0,15.0,30,0.00,,BKN220,0.31,VWS V13.01,2013-04-20 21:56:00,
2013-04-20 18:01:00,52.7,21.4,30.00,WSW,244,3.6,15.0,29,0.00,,BKN250,0.31,VWS V13.01,2013-04-20 22:01:00,
2013-04-20 18:06:00,52.7,21.4,30.00,NNW,348,7.2,15.0,29,0.00,,BKN250,0.31,VWS V13.01,2013-04-20 22:06:00,
2013-04-20 18:11:00,52.3,21.0,30.00,WNW,288,6.3,15.0,29,0.00,,BKN250,0.31,VWS V13.01,2013-04-20 22:11:00,
2013-04-20 18:16:00,52.2,20.9,30.00,NNW,334,5.8,15.4,29,0.00,,BKN250,0.31,VWS V13.01,2013-04-20 22:16:00,
2013-04-20 18:21:00,51.8,20.6,30.00,NNW,333,8.1,15.4,29,0.00,,BKN250,0.31,VWS V13.01,2013-04-20 22:21:00,
2013-04-20 18:26:00,51.6,21.2,30.00,NNE,17,0.0,15.4,30,0.00,,BKN250,0.31,VWS V13.01,2013-04-20 22:26:00,
2013-04-20 18:31:00,51.6,21.2,30.00,West,270,0.0,8.1,30,0.00,,BKN250,0.31,VWS V13.01,2013-04-20 22:31:00,
2013-04-20 18:36:00,51.3,20.9,30.00,NNE,28,0.0,8.1,30,0.00,,BKN250,0.31,VWS V13.01,2013-04-20 22:36:00,
2013-04-20 18:41:00,50.9,21.4,30.03,WNW,294,0.0,8.1,31,0.00,,BKN250,0.31,VWS V13.01,2013-04-20 22:41:00,
2013-04-20 18:46:00,50.7,21.2,30.03,NNW,338,0.0,8.1,31,0.00,,BKN250,0.31,VWS V13.01,2013-04-20 22:46:00,
2013-04-20 18:51:00,50.4,21.6,30.03,NNW,343,4.0,8.1,32,0.00,,BKN250,0.31,VWS V13.01,2013-04-20 22:51:00,
2013-04-20 18:56:00,50.2,21.5,30.03,WNW,288,2.7,8.1,32,0.00,,BKN250,0.31,VWS V13.01,2013-04-20 22:56:00,
2013-04-20 19:01:00,50.0,21.3,30.03,NNW,344,0.0,0.0,32,0.00,,BKN250,0.31,VWS V13.01,2013-04-20 23:01:00,
2013-04-20 19:06:00,49.8,21.9,30.03,NW,311,0.0,0.0,33,0.00,,BKN250,0.31,VWS V13.01,2013-04-20 23:06:00,
2013-04-20 19:11:00,49.5,21.6,30.03,West,276,0.0,7.2,33,0.00,,BKN250,0.31,VWS V13.01,2013-04-20 23:11:00,
2013-04-20 19:16:00,49.5,20.9,30.03,WNW,302,0.0,7.2,32,0.00,,BKN250,0.31,VWS V13.01,2013-04-20 23:16:00,
2013-04-20 19:21:00,49.3,21.4,30.03,NNW,341,0.0,7.2,33,0.00,,BKN250,0.31,VWS V13.01,2013-04-20 23:21:00,
2013-04-20 19:26:00,49.1,21.3,30.06,West,279,8.1,10.5,33,0.00,,BKN250,0.31,VWS V13.01,2013-04-20 23:26:00,
2013-04-20 19:31:00,48.9,21.1,30.06,WSW,250,0.0,6.3,33,0.00,,BKN250,0.31,VWS V13.01,2013-04-20 23:31:00,
2013-04-20 19:36:00,48.6,20.8,30.06,SW,216,0.0,6.7,33,0.00,,BKN250,0.31,VWS V13.01,2013-04-20 23:36:00,
2013-04-20 19:41:00,48.2,19.7,30.06,WNW,293,2.7,10.5,32,0.00,,BKN250,0.31,VWS V13.01,2013-04-20 23:41:00,
2013-04-20 19:46:00,48.0,20.3,30.06,West,265,0.0,10.5,33,0.00,,BKN250,0.31,VWS V13.01,2013-04-20 23:46:00,
2013-04-20 19:51:00,47.8,20.9,30.06,WNW,290,0.0,10.5,34,0.00,,BKN250,0.31,VWS V13.01,2013-04-20 23:51:00,
2013-04-20 19:56:00,47.5,20.5,30.06,WSW,245,0.0,10.5,34,0.00,,BKN250,0.31,VWS V13.01,2013-04-20 23:56:00,
2013-04-20 20:01:00,47.3,19.7,30.09,WNW,300,0.0,0.0,33,0.00,,BKN250,0.31,VWS V13.01,2013-04-21 00:01:00,
2013-04-20 20:06:00,46.9,19.4,30.09,NNW,327,4.0,9.2,33,0.00,,BKN250,0.31,VWS V13.01,2013-04-21 00:06:00,
2013-04-20 20:11:00,46.8,19.2,30.09,NNW,327,4.0,9.2,33,0.00,,BKN250,0.31,VWS V13.01,2013-04-21 00:11:00,
2013-04-20 20:16:00,46.6,19.7,30.09,West,263,0.0,9.2,34,0.00,,BKN250,0.31,VWS V13.01,2013-04-21 00:16:00,
2013-04-20 20:21:00,46.4,19.6,30.09,NW,325,0.0,9.2,34,0.00,,BKN250,0.31,VWS V13.01,2013-04-21 00:21:00,
2013-04-20 20:26:00,46.2,20.1,30.09,WNW,300,5.4,10.1,35,0.00,,BKN250,0.31,VWS V13.01,2013-04-21 00:26:00,
2013-04-20 20:31:00,45.9,19.8,30.12,ESE,110,0.0,10.1,35,0.00,,SCT250,0.31,VWS V13.01,2013-04-21 00:31:00,
2013-04-20 20:36:00,45.7,19.6,30.12,WNW,303,5.4,10.1,35,0.00,,SCT250,0.31,VWS V13.01,2013-04-21 00:36:00,
2013-04-20 20:41:00,45.5,20.1,30.12,WSW,248,0.0,10.1,36,0.00,,SCT250,0.31,VWS V13.01,2013-04-21 00:41:00,
2013-04-20 20:46:00,45.1,20.4,30.12,NW,320,7.6,12.8,37,0.00,,SCT250,0.31,VWS V13.01,2013-04-21 00:46:00,
2013-04-20 20:51:00,44.8,20.1,30.12,NNE,22,0.0,12.8,37,0.00,,SCT250,0.31,VWS V13.01,2013-04-21 00:51:00,
2013-04-20 20:56:00,44.4,20.4,30.12,NE,52,3.1,12.8,38,0.00,,SCT250,0.31,VWS V13.01,2013-04-21 00:56:00,
2013-04-20 21:01:00,44.1,20.7,30.15,NNW,346,0.0,5.8,39,0.00,,SCT250,0.31,VWS V13.01,2013-04-21 01:01:00,
2013-04-20 21:06:00,43.5,20.2,30.15,NNW,341,8.3,8.3,39,0.00,,SCT250,0.31,VWS V13.01,2013-04-21 01:06:00,
2013-04-20 21:11:00,43.2,20.5,30.15,WSW,237,5.8,8.3,40,0.00,,SCT250,0.31,VWS V13.01,2013-04-21 01:11:00,
2013-04-20 21:16:00,42.8,20.2,30.15,WSW,256,0.0,8.3,40,0.00,,SCT250,0.31,VWS V13.01,2013-04-21 01:16:00,
2013-04-20 21:21:00,42.4,20.4,30.15,NW,314,2.2,9.6,41,0.00,,SCT250,0.31,VWS V13.01,2013-04-21 01:21:00,
2013-04-20 21:26:00,42.1,20.1,30.15,NNW,340,8.7,11.0,41,0.00,,SCT250,0.31,VWS V13.01,2013-04-21 01:26:00,
2013-04-20 21:31:00,41.7,19.2,30.18,NNE,22,4.0,10.5,40,0.00,,SCT250,0.31,VWS V13.01,2013-04-21 01:31:00,
2013-04-20 21:36:00,41.5,19.0,30.18,NNW,329,0.0,11.9,40,0.00,,SCT250,0.31,VWS V13.01,2013-04-21 01:36:00,
2013-04-20 21:41:00,41.4,18.9,30.18,North,357,8.3,11.9,40,0.00,,SCT250,0.31,VWS V13.01,2013-04-21 01:41:00,
2013-04-20 21:46:00,41.2,19.3,30.18,WNW,288,4.9,12.8,41,0.00,,SCT250,0.31,VWS V13.01,2013-04-21 01:46:00,
2013-04-20 21:51:00,40.8,19.0,30.18,NNW,334,8.1,12.8,41,0.00,,SCT250,0.31,VWS V13.01,2013-04-21 01:51:00,
2013-04-20 21:56:00,40.6,18.8,30.21,North,4,7.2,12.8,41,0.00,,SCT250,0.31,VWS V13.01,2013-04-21 01:56:00,
2013-04-20 22:01:00,40.5,18.6,30.21,North,353,2.7,10.1,41,0.00,,SCT250,0.31,VWS V13.01,2013-04-21 02:01:00,
2013-04-20 22:06:00,40.1,18.3,30.21,SW,215,0.0,10.5,41,0.00,,SCT250,0.31,VWS V13.01,2013-04-21 02:06:00,
2013-04-20 22:11:00,39.9,18.1,30.21,SSW,208,0.0,10.5,41,0.00,,SCT250,0.31,VWS V13.01,2013-04-21 02:11:00,
2013-04-20 22:16:00,39.6,17.8,30.21,West,273,4.9,11.4,41,0.00,,SCT250,0.31,VWS V13.01,2013-04-21 02:16:00,
2013-04-20 22:21:00,39.4,18.2,30.21,NNW,336,8.3,15.4,42,0.00,,SCT250,0.31,VWS V13.01,2013-04-21 02:21:00,
2013-04-20 22:26:00,39.2,18.0,30.21,SSW,207,0.0,15.4,42,0.00,,SCT250,0.31,VWS V13.01,2013-04-21 02:26:00,
2013-04-20 22:31:00,38.8,17.7,30.21,West,263,8.3,15.0,42,0.00,,SCT250,0.31,VWS V13.01,2013-04-21 02:31:00,
2013-04-20 22:36:00,38.7,17.6,30.21,WSW,242,14.5,15.0,42,0.00,,SCT250,0.31,VWS V13.01,2013-04-21 02:36:00,
2013-04-20 22:41:00,38.5,17.4,30.21,WNW,282,12.3,15.0,42,0.00,,SCT250,0.31,VWS V13.01,2013-04-21 02:41:00,
2013-04-20 22:46:00,38.3,17.2,30.21,NNW,339,15.4,16.8,42,0.00,,FEW085,0.31,VWS V13.01,2013-04-21 02:46:00,
2013-04-20 22:51:00,38.1,17.1,30.21,NNW,341,0.0,16.8,42,0.00,,FEW085,0.31,VWS V13.01,2013-04-21 02:51:00,
2013-04-20 22:56:00,37.9,16.9,30.21,WSW,256,8.1,16.8,42,0.00,,FEW085,0.31,VWS V13.01,2013-04-21 02:56:00,
2013-04-20 23:01:00,37.6,16.6,30.24,North,4,0.0,12.8,42,0.00,,FEW085,0.31,VWS V13.01,2013-04-21 03:01:00,
2013-04-20 23:06:00,37.4,16.4,30.24,NW,312,10.1,15.9,42,0.00,,FEW085,0.31,VWS V13.01,2013-04-21 03:06:00,
2013-04-20 23:11:00,37.2,16.3,30.24,WSW,239,0.0,17.9,42,0.00,,FEW085,0.31,VWS V13.01,2013-04-21 03:11:00,
2013-04-20 23:16:00,37.0,16.1,30.24,West,271,4.5,17.9,42,0.00,,FEW085,0.31,VWS V13.01,2013-04-21 03:16:00,
2013-04-20 23:21:00,36.9,15.9,30.24,North,350,12.8,17.9,42,0.00,,FEW085,0.31,VWS V13.01,2013-04-21 03:21:00,
2013-04-20 23:26:00,36.7,15.8,30.24,NNW,339,7.6,17.9,42,0.00,,FEW085,0.31,VWS V13.01,2013-04-21 03:26:00,
2013-04-20 23:31:00,36.3,16.0,30.24,NW,314,0.0,8.1,43,0.00,,FEW085,0.31,VWS V13.01,2013-04-21 03:31:00,
2013-04-20 23:36:00,36.1,15.8,30.24,West,272,2.7,14.5,43,0.00,,FEW085,0.31,VWS V13.01,2013-04-21 03:36:00,
2013-04-20 23:41:00,36.0,15.6,30.24,NW,317,10.5,14.5,43,0.00,,FEW085,0.31,VWS V13.01,2013-04-21 03:41:00,
2013-04-20 23:46:00,35.8,16.0,30.24,West,278,0.0,14.5,44,0.00,,SCT085,0.31,VWS V13.01,2013-04-21 03:46:00,
2013-04-20 23:51:00,35.6,15.9,30.24,SW,235,3.1,14.5,44,0.00,,SCT085,0.31,VWS V13.01,2013-04-21 03:51:00,
2013-04-20 23:56:00,35.4,16.2,30.24,NNE,15,6.3,14.5,45,0.00,,SCT085,0.31,VWS V13.01,2013-04-21 03:56:00,